sensor_id;sensor_type;location;lat;lon;timestamp;P1;durP1;ratioP1;P2;durP2;ratioP2
38859;SDS011;24609;48.316;16.174;2022-11-12T00:00:36;6.88;;;4.45;;
38859;SDS011;24609;48.316;16.174;2022-11-12T00:03:02;7.13;;;4.20;;
38859;SDS011;24609;48.316;16.174;2022-11-12T00:05:28;5.78;;;3.40;;
38859;SDS011;24609;48.316;16.174;2022-11-12T00:07:54;6.68;;;4.22;;
38859;SDS011;24609;48.316;16.174;2022-11-12T00:10:20;5.10;;;2.97;;
38859;SDS011;24609;48.316;16.174;2022-11-12T00:12:46;8.52;;;4.40;;
38859;SDS011;24609;48.316;16.174;2022-11-12T00:15:11;5.95;;;3.35;;
38859;SDS011;24609;48.316;16.174;2022-11-12T00:17:37;5.10;;;3.55;;
38859;SDS011;24609;48.316;16.174;2022-11-12T00:20:03;7.35;;;4.10;;
38859;SDS011;24609;48.316;16.174;2022-11-12T00:22:30;6.80;;;3.85;;
38859;SDS011;24609;48.316;16.174;2022-11-12T00:24:56;5.95;;;3.33;;
38859;SDS011;24609;48.316;16.174;2022-11-12T00:27:22;6.05;;;3.45;;
38859;SDS011;24609;48.316;16.174;2022-11-12T00:29:47;7.70;;;3.95;;
38859;SDS011;24609;48.316;16.174;2022-11-12T00:32:13;6.43;;;4.05;;
38859;SDS011;24609;48.316;16.174;2022-11-12T00:34:39;4.88;;;3.28;;
38859;SDS011;24609;48.316;16.174;2022-11-12T00:37:05;7.03;;;3.15;;
38859;SDS011;24609;48.316;16.174;2022-11-12T00:39:31;5.57;;;3.45;;
38859;SDS011;24609;48.316;16.174;2022-11-12T00:41:57;7.78;;;3.70;;
38859;SDS011;24609;48.316;16.174;2022-11-12T00:44:23;6.22;;;3.83;;
38859;SDS011;24609;48.316;16.174;2022-11-12T00:46:49;4.75;;;2.90;;
38859;SDS011;24609;48.316;16.174;2022-11-12T00:49:15;6.28;;;3.50;;
38859;SDS011;24609;48.316;16.174;2022-11-12T00:51:41;4.28;;;3.22;;
38859;SDS011;24609;48.316;16.174;2022-11-12T00:54:07;8.48;;;3.50;;
38859;SDS011;24609;48.316;16.174;2022-11-12T00:56:32;6.82;;;3.15;;
38859;SDS011;24609;48.316;16.174;2022-11-12T00:58:59;6.68;;;3.33;;
38859;SDS011;24609;48.316;16.174;2022-11-12T01:01:25;6.07;;;4.15;;
38859;SDS011;24609;48.316;16.174;2022-11-12T01:03:51;6.00;;;3.60;;
38859;SDS011;24609;48.316;16.174;2022-11-12T01:06:18;6.03;;;3.60;;
38859;SDS011;24609;48.316;16.174;2022-11-12T01:08:46;4.85;;;2.90;;
38859;SDS011;24609;48.316;16.174;2022-11-12T01:11:17;4.60;;;2.97;;
38859;SDS011;24609;48.316;16.174;2022-11-12T01:13:45;7.10;;;4.55;;
38859;SDS011;24609;48.316;16.174;2022-11-12T01:18:44;3.97;;;2.80;;
38859;SDS011;24609;48.316;16.174;2022-11-12T01:21:10;5.30;;;3.40;;
38859;SDS011;24609;48.316;16.174;2022-11-12T01:23:36;2.97;;;2.28;;
38859;SDS011;24609;48.316;16.174;2022-11-12T01:26:04;17.38;;;3.40;;
38859;SDS011;24609;48.316;16.174;2022-11-12T01:28:35;4.60;;;3.40;;
38859;SDS011;24609;48.316;16.174;2022-11-12T01:33:41;3.78;;;3.13;;
38859;SDS011;24609;48.316;16.174;2022-11-12T01:36:09;5.53;;;3.05;;
38859;SDS011;24609;48.316;16.174;2022-11-12T01:38:36;5.28;;;3.78;;
38859;SDS011;24609;48.316;16.174;2022-11-12T01:41:03;6.15;;;3.35;;
38859;SDS011;24609;48.316;16.174;2022-11-12T01:43:30;5.85;;;2.88;;
38859;SDS011;24609;48.316;16.174;2022-11-12T01:45:56;6.32;;;3.33;;
38859;SDS011;24609;48.316;16.174;2022-11-12T01:48:27;5.13;;;2.72;;
38859;SDS011;24609;48.316;16.174;2022-11-12T01:50:56;4.50;;;2.33;;
38859;SDS011;24609;48.316;16.174;2022-11-12T01:53:22;4.00;;;2.53;;
38859;SDS011;24609;48.316;16.174;2022-11-12T01:55:52;4.53;;;2.80;;
38859;SDS011;24609;48.316;16.174;2022-11-12T01:58:19;3.42;;;2.80;;
38859;SDS011;24609;48.316;16.174;2022-11-12T02:00:48;3.88;;;2.40;;
38859;SDS011;24609;48.316;16.174;2022-11-12T02:03:16;3.20;;;2.60;;
38859;SDS011;24609;48.316;16.174;2022-11-12T02:05:45;4.38;;;2.50;;
38859;SDS011;24609;48.316;16.174;2022-11-12T02:08:17;4.05;;;2.55;;
38859;SDS011;24609;48.316;16.174;2022-11-12T02:10:43;9.15;;;2.97;;
38859;SDS011;24609;48.316;16.174;2022-11-12T02:13:09;4.07;;;2.58;;
38859;SDS011;24609;48.316;16.174;2022-11-12T02:15:53;4.72;;;2.58;;
38859;SDS011;24609;48.316;16.174;2022-11-12T02:18:20;5.68;;;2.38;;
38859;SDS011;24609;48.316;16.174;2022-11-12T02:20:51;2.95;;;2.30;;
38859;SDS011;24609;48.316;16.174;2022-11-12T02:23:18;4.03;;;2.40;;
38859;SDS011;24609;48.316;16.174;2022-11-12T02:25:44;4.07;;;2.03;;
38859;SDS011;24609;48.316;16.174;2022-11-12T02:28:10;7.95;;;2.58;;
38859;SDS011;24609;48.316;16.174;2022-11-12T02:30:40;4.20;;;2.63;;
38859;SDS011;24609;48.316;16.174;2022-11-12T02:33:08;4.03;;;2.35;;
38859;SDS011;24609;48.316;16.174;2022-11-12T02:35:33;3.47;;;2.38;;
38859;SDS011;24609;48.316;16.174;2022-11-12T02:37:59;3.47;;;2.22;;
38859;SDS011;24609;48.316;16.174;2022-11-12T02:40:25;3.95;;;2.28;;
38859;SDS011;24609;48.316;16.174;2022-11-12T02:42:50;3.83;;;2.55;;
38859;SDS011;24609;48.316;16.174;2022-11-12T02:45:16;3.03;;;2.00;;
38859;SDS011;24609;48.316;16.174;2022-11-12T02:47:43;3.05;;;2.10;;
38859;SDS011;24609;48.316;16.174;2022-11-12T02:50:09;2.65;;;2.00;;
38859;SDS011;24609;48.316;16.174;2022-11-12T02:52:35;4.10;;;2.85;;
38859;SDS011;24609;48.316;16.174;2022-11-12T02:55:01;2.25;;;1.90;;
38859;SDS011;24609;48.316;16.174;2022-11-12T02:57:26;3.25;;;2.45;;
38859;SDS011;24609;48.316;16.174;2022-11-12T02:59:54;3.00;;;2.13;;
38859;SDS011;24609;48.316;16.174;2022-11-12T03:02:20;2.42;;;2.10;;
38859;SDS011;24609;48.316;16.174;2022-11-12T03:04:45;3.58;;;1.83;;
38859;SDS011;24609;48.316;16.174;2022-11-12T03:07:11;4.55;;;2.33;;
38859;SDS011;24609;48.316;16.174;2022-11-12T03:09:36;4.03;;;2.53;;
38859;SDS011;24609;48.316;16.174;2022-11-12T03:12:02;4.20;;;2.38;;
38859;SDS011;24609;48.316;16.174;2022-11-12T03:14:28;3.17;;;1.88;;
38859;SDS011;24609;48.316;16.174;2022-11-12T03:16:54;2.90;;;2.30;;
38859;SDS011;24609;48.316;16.174;2022-11-12T03:19:19;2.05;;;1.58;;
38859;SDS011;24609;48.316;16.174;2022-11-12T03:21:45;3.28;;;1.95;;
38859;SDS011;24609;48.316;16.174;2022-11-12T03:24:10;3.40;;;2.05;;
38859;SDS011;24609;48.316;16.174;2022-11-12T03:26:36;2.53;;;1.58;;
38859;SDS011;24609;48.316;16.174;2022-11-12T03:29:02;4.07;;;2.50;;
38859;SDS011;24609;48.316;16.174;2022-11-12T03:31:28;3.58;;;2.10;;
38859;SDS011;24609;48.316;16.174;2022-11-12T03:33:54;4.25;;;2.47;;
38859;SDS011;24609;48.316;16.174;2022-11-12T03:36:19;2.75;;;1.65;;
38859;SDS011;24609;48.316;16.174;2022-11-12T03:38:45;2.70;;;1.95;;
38859;SDS011;24609;48.316;16.174;2022-11-12T03:41:11;2.67;;;1.67;;
38859;SDS011;24609;48.316;16.174;2022-11-12T03:43:36;3.55;;;2.20;;
38859;SDS011;24609;48.316;16.174;2022-11-12T03:46:02;8.35;;;2.38;;
38859;SDS011;24609;48.316;16.174;2022-11-12T03:48:28;4.05;;;2.08;;
38859;SDS011;24609;48.316;16.174;2022-11-12T03:50:57;4.05;;;2.50;;
38859;SDS011;24609;48.316;16.174;2022-11-12T03:53:23;4.70;;;2.55;;
38859;SDS011;24609;48.316;16.174;2022-11-12T03:55:49;2.83;;;1.63;;
38859;SDS011;24609;48.316;16.174;2022-11-12T03:58:15;3.17;;;2.20;;
38859;SDS011;24609;48.316;16.174;2022-11-12T04:00:40;2.70;;;1.77;;
38859;SDS011;24609;48.316;16.174;2022-11-12T04:03:06;2.22;;;1.75;;
38859;SDS011;24609;48.316;16.174;2022-11-12T04:05:32;2.83;;;1.73;;
38859;SDS011;24609;48.316;16.174;2022-11-12T04:08:21;6.63;;;2.42;;
38859;SDS011;24609;48.316;16.174;2022-11-12T04:13:30;3.33;;;2.25;;
38859;SDS011;24609;48.316;16.174;2022-11-12T04:15:57;3.40;;;1.92;;
38859;SDS011;24609;48.316;16.174;2022-11-12T04:18:44;3.33;;;2.03;;
38859;SDS011;24609;48.316;16.174;2022-11-12T04:21:31;3.75;;;1.70;;
38859;SDS011;24609;48.316;16.174;2022-11-12T04:27:16;2.03;;;1.60;;
38859;SDS011;24609;48.316;16.174;2022-11-12T04:29:44;13.00;;;1.65;;
38859;SDS011;24609;48.316;16.174;2022-11-12T04:32:31;2.60;;;1.85;;
38859;SDS011;24609;48.316;16.174;2022-11-12T04:34:57;3.47;;;1.67;;
38859;SDS011;24609;48.316;16.174;2022-11-12T04:37:24;2.92;;;1.80;;
38859;SDS011;24609;48.316;16.174;2022-11-12T04:39:51;2.35;;;1.50;;
38859;SDS011;24609;48.316;16.174;2022-11-12T04:42:17;2.85;;;2.20;;
38859;SDS011;24609;48.316;16.174;2022-11-12T04:45:03;4.38;;;2.40;;
38859;SDS011;24609;48.316;16.174;2022-11-12T04:47:36;2.30;;;1.83;;
38859;SDS011;24609;48.316;16.174;2022-11-12T04:50:05;1.67;;;1.33;;
38859;SDS011;24609;48.316;16.174;2022-11-12T04:52:36;7.90;;;2.30;;
38859;SDS011;24609;48.316;16.174;2022-11-12T04:55:02;4.22;;;2.05;;
38859;SDS011;24609;48.316;16.174;2022-11-12T04:57:28;3.78;;;2.03;;
38859;SDS011;24609;48.316;16.174;2022-11-12T04:59:54;4.60;;;2.13;;
38859;SDS011;24609;48.316;16.174;2022-11-12T05:02:19;2.35;;;1.58;;
38859;SDS011;24609;48.316;16.174;2022-11-12T05:04:45;4.60;;;2.13;;
38859;SDS011;24609;48.316;16.174;2022-11-12T05:07:11;4.20;;;2.05;;
38859;SDS011;24609;48.316;16.174;2022-11-12T05:09:37;2.63;;;1.77;;
38859;SDS011;24609;48.316;16.174;2022-11-12T05:12:03;2.53;;;1.60;;
38859;SDS011;24609;48.316;16.174;2022-11-12T05:14:29;2.70;;;2.42;;
38859;SDS011;24609;48.316;16.174;2022-11-12T05:16:55;3.13;;;1.73;;
38859;SDS011;24609;48.316;16.174;2022-11-12T05:19:20;3.58;;;2.05;;
38859;SDS011;24609;48.316;16.174;2022-11-12T05:21:46;4.40;;;1.60;;
38859;SDS011;24609;48.316;16.174;2022-11-12T05:24:30;2.28;;;2.08;;
38859;SDS011;24609;48.316;16.174;2022-11-12T05:27:01;2.00;;;1.30;;
38859;SDS011;24609;48.316;16.174;2022-11-12T05:29:27;2.58;;;1.80;;
38859;SDS011;24609;48.316;16.174;2022-11-12T05:31:53;2.08;;;1.42;;
38859;SDS011;24609;48.316;16.174;2022-11-12T05:34:19;2.92;;;2.10;;
38859;SDS011;24609;48.316;16.174;2022-11-12T05:36:45;3.72;;;2.30;;
38859;SDS011;24609;48.316;16.174;2022-11-12T05:39:11;2.97;;;1.50;;
38859;SDS011;24609;48.316;16.174;2022-11-12T05:41:37;3.25;;;1.80;;
38859;SDS011;24609;48.316;16.174;2022-11-12T05:44:02;2.78;;;1.67;;
38859;SDS011;24609;48.316;16.174;2022-11-12T05:46:28;2.80;;;1.70;;
38859;SDS011;24609;48.316;16.174;2022-11-12T05:48:54;2.90;;;1.55;;
38859;SDS011;24609;48.316;16.174;2022-11-12T05:51:19;2.78;;;1.30;;
38859;SDS011;24609;48.316;16.174;2022-11-12T05:53:45;3.38;;;1.98;;
38859;SDS011;24609;48.316;16.174;2022-11-12T05:56:11;2.72;;;1.80;;
38859;SDS011;24609;48.316;16.174;2022-11-12T05:58:36;1.80;;;1.45;;
38859;SDS011;24609;48.316;16.174;2022-11-12T06:01:02;2.08;;;1.45;;
38859;SDS011;24609;48.316;16.174;2022-11-12T06:03:28;4.95;;;3.03;;
38859;SDS011;24609;48.316;16.174;2022-11-12T06:05:54;5.90;;;3.50;;
38859;SDS011;24609;48.316;16.174;2022-11-12T06:08:20;8.15;;;4.78;;
38859;SDS011;24609;48.316;16.174;2022-11-12T06:10:47;4.85;;;2.70;;
38859;SDS011;24609;48.316;16.174;2022-11-12T06:13:14;2.40;;;2.00;;
38859;SDS011;24609;48.316;16.174;2022-11-12T06:15:39;3.78;;;2.03;;
38859;SDS011;24609;48.316;16.174;2022-11-12T06:18:05;2.67;;;2.10;;
38859;SDS011;24609;48.316;16.174;2022-11-12T06:20:31;4.43;;;1.92;;
38859;SDS011;24609;48.316;16.174;2022-11-12T06:22:57;2.15;;;1.45;;
38859;SDS011;24609;48.316;16.174;2022-11-12T06:25:23;3.78;;;2.45;;
38859;SDS011;24609;48.316;16.174;2022-11-12T06:27:48;5.43;;;2.80;;
38859;SDS011;24609;48.316;16.174;2022-11-12T06:30:14;3.47;;;2.80;;
38859;SDS011;24609;48.316;16.174;2022-11-12T06:32:40;6.03;;;2.97;;
38859;SDS011;24609;48.316;16.174;2022-11-12T06:35:06;6.00;;;2.25;;
38859;SDS011;24609;48.316;16.174;2022-11-12T06:37:33;4.00;;;2.45;;
38859;SDS011;24609;48.316;16.174;2022-11-12T06:39:58;5.10;;;3.03;;
38859;SDS011;24609;48.316;16.174;2022-11-12T06:42:24;3.30;;;2.55;;
38859;SDS011;24609;48.316;16.174;2022-11-12T06:44:50;2.60;;;2.08;;
38859;SDS011;24609;48.316;16.174;2022-11-12T06:47:15;2.97;;;2.05;;
38859;SDS011;24609;48.316;16.174;2022-11-12T06:49:41;2.95;;;1.73;;
38859;SDS011;24609;48.316;16.174;2022-11-12T06:52:07;5.18;;;2.97;;
38859;SDS011;24609;48.316;16.174;2022-11-12T06:54:32;3.78;;;2.20;;
38859;SDS011;24609;48.316;16.174;2022-11-12T06:56:58;1.88;;;1.67;;
38859;SDS011;24609;48.316;16.174;2022-11-12T06:59:23;10.50;;;2.13;;
38859;SDS011;24609;48.316;16.174;2022-11-12T07:01:49;2.78;;;2.10;;
38859;SDS011;24609;48.316;16.174;2022-11-12T07:04:15;2.13;;;1.30;;
38859;SDS011;24609;48.316;16.174;2022-11-12T07:06:40;2.20;;;1.55;;
38859;SDS011;24609;48.316;16.174;2022-11-12T07:09:06;1.67;;;1.40;;
38859;SDS011;24609;48.316;16.174;2022-11-12T07:11:32;2.35;;;1.75;;
38859;SDS011;24609;48.316;16.174;2022-11-12T07:13:57;2.15;;;1.80;;
38859;SDS011;24609;48.316;16.174;2022-11-12T07:16:23;2.45;;;1.38;;
38859;SDS011;24609;48.316;16.174;2022-11-12T07:18:49;1.98;;;1.75;;
38859;SDS011;24609;48.316;16.174;2022-11-12T07:21:16;2.85;;;2.03;;
38859;SDS011;24609;48.316;16.174;2022-11-12T07:23:43;2.50;;;1.87;;
38859;SDS011;24609;48.316;16.174;2022-11-12T07:26:17;3.10;;;1.83;;
38859;SDS011;24609;48.316;16.174;2022-11-12T07:28:47;4.10;;;1.73;;
38859;SDS011;24609;48.316;16.174;2022-11-12T07:31:15;1.45;;;1.13;;
38859;SDS011;24609;48.316;16.174;2022-11-12T07:33:43;3.53;;;2.30;;
38859;SDS011;24609;48.316;16.174;2022-11-12T07:36:10;2.33;;;1.77;;
38859;SDS011;24609;48.316;16.174;2022-11-12T07:38:40;3.13;;;1.95;;
38859;SDS011;24609;48.316;16.174;2022-11-12T07:41:07;3.22;;;1.95;;
38859;SDS011;24609;48.316;16.174;2022-11-12T07:43:39;3.47;;;1.75;;
38859;SDS011;24609;48.316;16.174;2022-11-12T07:46:12;3.13;;;2.10;;
38859;SDS011;24609;48.316;16.174;2022-11-12T07:48:49;3.10;;;1.95;;
38859;SDS011;24609;48.316;16.174;2022-11-12T07:51:16;3.80;;;2.55;;
38859;SDS011;24609;48.316;16.174;2022-11-12T07:53:44;7.95;;;3.55;;
38859;SDS011;24609;48.316;16.174;2022-11-12T07:56:12;3.38;;;2.28;;
38859;SDS011;24609;48.316;16.174;2022-11-12T07:58:39;5.05;;;2.33;;
38859;SDS011;24609;48.316;16.174;2022-11-12T08:03:48;4.97;;;2.25;;
38859;SDS011;24609;48.316;16.174;2022-11-12T08:06:14;4.95;;;2.38;;
38859;SDS011;24609;48.316;16.174;2022-11-12T08:08:40;3.92;;;2.25;;
38859;SDS011;24609;48.316;16.174;2022-11-12T08:11:05;4.93;;;2.47;;
38859;SDS011;24609;48.316;16.174;2022-11-12T08:13:31;3.78;;;2.38;;
38859;SDS011;24609;48.316;16.174;2022-11-12T08:15:57;2.63;;;1.90;;
38859;SDS011;24609;48.316;16.174;2022-11-12T08:18:23;3.65;;;2.60;;
38859;SDS011;24609;48.316;16.174;2022-11-12T08:20:49;2.88;;;2.20;;
38859;SDS011;24609;48.316;16.174;2022-11-12T08:23:15;3.13;;;2.13;;
38859;SDS011;24609;48.316;16.174;2022-11-12T08:25:41;2.83;;;1.52;;
38859;SDS011;24609;48.316;16.174;2022-11-12T08:28:06;2.72;;;2.05;;
38859;SDS011;24609;48.316;16.174;2022-11-12T08:30:33;3.60;;;2.92;;
38859;SDS011;24609;48.316;16.174;2022-11-12T08:33:03;2.97;;;2.22;;
38859;SDS011;24609;48.316;16.174;2022-11-12T08:35:30;3.30;;;2.20;;
38859;SDS011;24609;48.316;16.174;2022-11-12T08:37:59;2.88;;;1.90;;
38859;SDS011;24609;48.316;16.174;2022-11-12T08:40:26;3.88;;;2.00;;
38859;SDS011;24609;48.316;16.174;2022-11-12T08:43:00;4.15;;;2.15;;
38859;SDS011;24609;48.316;16.174;2022-11-12T08:45:28;4.60;;;2.38;;
38859;SDS011;24609;48.316;16.174;2022-11-12T08:47:59;2.58;;;1.70;;
38859;SDS011;24609;48.316;16.174;2022-11-12T08:50:26;3.55;;;1.88;;
38859;SDS011;24609;48.316;16.174;2022-11-12T08:52:52;4.20;;;2.30;;
38859;SDS011;24609;48.316;16.174;2022-11-12T08:55:18;3.25;;;2.47;;
38859;SDS011;24609;48.316;16.174;2022-11-12T08:57:43;4.03;;;2.90;;
38859;SDS011;24609;48.316;16.174;2022-11-12T09:00:09;3.53;;;2.30;;
38859;SDS011;24609;48.316;16.174;2022-11-12T09:02:36;2.40;;;1.70;;
38859;SDS011;24609;48.316;16.174;2022-11-12T09:05:02;3.03;;;2.03;;
38859;SDS011;24609;48.316;16.174;2022-11-12T09:07:28;3.08;;;1.95;;
38859;SDS011;24609;48.316;16.174;2022-11-12T09:09:54;3.67;;;2.03;;
38859;SDS011;24609;48.316;16.174;2022-11-12T09:12:20;2.25;;;1.67;;
38859;SDS011;24609;48.316;16.174;2022-11-12T09:14:45;4.07;;;2.17;;
38859;SDS011;24609;48.316;16.174;2022-11-12T09:17:11;3.33;;;2.03;;
38859;SDS011;24609;48.316;16.174;2022-11-12T09:19:37;5.30;;;2.67;;
38859;SDS011;24609;48.316;16.174;2022-11-12T09:22:03;2.70;;;1.60;;
38859;SDS011;24609;48.316;16.174;2022-11-12T09:24:28;3.90;;;1.95;;
38859;SDS011;24609;48.316;16.174;2022-11-12T09:26:54;2.83;;;1.92;;
38859;SDS011;24609;48.316;16.174;2022-11-12T09:29:20;2.90;;;1.95;;
38859;SDS011;24609;48.316;16.174;2022-11-12T09:31:46;2.72;;;1.80;;
38859;SDS011;24609;48.316;16.174;2022-11-12T09:34:11;3.03;;;1.90;;
38859;SDS011;24609;48.316;16.174;2022-11-12T09:36:38;3.00;;;2.03;;
38859;SDS011;24609;48.316;16.174;2022-11-12T09:39:04;2.75;;;2.00;;
38859;SDS011;24609;48.316;16.174;2022-11-12T09:41:33;2.75;;;2.10;;
38859;SDS011;24609;48.316;16.174;2022-11-12T09:44:05;4.25;;;2.30;;
38859;SDS011;24609;48.316;16.174;2022-11-12T09:54:58;2.95;;;1.92;;
38859;SDS011;24609;48.316;16.174;2022-11-12T09:57:34;3.95;;;2.38;;
38859;SDS011;24609;48.316;16.174;2022-11-12T09:59:59;4.38;;;2.05;;
38859;SDS011;24609;48.316;16.174;2022-11-12T10:03:11;2.80;;;2.30;;
38859;SDS011;24609;48.316;16.174;2022-11-12T10:05:29;3.22;;;2.28;;
38859;SDS011;24609;48.316;16.174;2022-11-12T10:11:05;2.90;;;2.00;;
38859;SDS011;24609;48.316;16.174;2022-11-12T10:25:26;2.63;;;1.55;;
38859;SDS011;24609;48.316;16.174;2022-11-12T10:27:54;3.50;;;2.22;;
38859;SDS011;24609;48.316;16.174;2022-11-12T10:30:21;3.80;;;2.42;;
38859;SDS011;24609;48.316;16.174;2022-11-12T10:32:49;2.13;;;1.92;;
38859;SDS011;24609;48.316;16.174;2022-11-12T10:35:17;3.40;;;2.03;;
38859;SDS011;24609;48.316;16.174;2022-11-12T10:38:00;2.42;;;1.98;;
38859;SDS011;24609;48.316;16.174;2022-11-12T10:40:34;3.47;;;2.13;;
38859;SDS011;24609;48.316;16.174;2022-11-12T10:43:05;2.25;;;1.77;;
38859;SDS011;24609;48.316;16.174;2022-11-12T10:45:46;4.13;;;1.83;;
38859;SDS011;24609;48.316;16.174;2022-11-12T10:48:20;2.53;;;1.67;;
38859;SDS011;24609;48.316;16.174;2022-11-12T10:50:47;2.05;;;1.65;;
38859;SDS011;24609;48.316;16.174;2022-11-12T10:53:12;2.60;;;1.80;;
38859;SDS011;24609;48.316;16.174;2022-11-12T10:55:59;2.10;;;1.50;;
38859;SDS011;24609;48.316;16.174;2022-11-12T10:58:27;2.08;;;1.60;;
38859;SDS011;24609;48.316;16.174;2022-11-12T11:03:33;1.60;;;1.50;;
38859;SDS011;24609;48.316;16.174;2022-11-12T11:06:03;4.00;;;1.80;;
38859;SDS011;24609;48.316;16.174;2022-11-12T11:08:39;3.17;;;2.03;;
38859;SDS011;24609;48.316;16.174;2022-11-12T11:13:41;2.75;;;1.65;;
38859;SDS011;24609;48.316;16.174;2022-11-12T11:16:09;5.93;;;1.90;;
38859;SDS011;24609;48.316;16.174;2022-11-12T11:18:37;2.97;;;1.80;;
38859;SDS011;24609;48.316;16.174;2022-11-12T11:23:58;3.03;;;1.90;;
38859;SDS011;24609;48.316;16.174;2022-11-12T11:26:36;2.65;;;1.90;;
38859;SDS011;24609;48.316;16.174;2022-11-12T11:31:53;2.95;;;2.17;;
38859;SDS011;24609;48.316;16.174;2022-11-12T11:34:42;3.78;;;1.88;;
38859;SDS011;24609;48.316;16.174;2022-11-12T11:37:45;3.47;;;2.30;;
38859;SDS011;24609;48.316;16.174;2022-11-12T11:43:11;3.03;;;1.80;;
38859;SDS011;24609;48.316;16.174;2022-11-12T12:03:15;4.68;;;2.30;;
38859;SDS011;24609;48.316;16.174;2022-11-12T12:18:50;7.65;;;3.30;;
38859;SDS011;24609;48.316;16.174;2022-11-12T12:21:22;5.80;;;2.75;;
38859;SDS011;24609;48.316;16.174;2022-11-12T12:24:25;6.25;;;3.25;;
38859;SDS011;24609;48.316;16.174;2022-11-12T12:26:45;5.50;;;3.63;;
38859;SDS011;24609;48.316;16.174;2022-11-12T12:31:44;5.53;;;3.60;;
38859;SDS011;24609;48.316;16.174;2022-11-12T12:34:18;6.05;;;3.25;;
38859;SDS011;24609;48.316;16.174;2022-11-12T12:36:45;4.65;;;3.25;;
38859;SDS011;24609;48.316;16.174;2022-11-12T12:39:13;4.90;;;3.10;;
38859;SDS011;24609;48.316;16.174;2022-11-12T12:42:02;9.45;;;3.55;;
38859;SDS011;24609;48.316;16.174;2022-11-12T12:44:54;8.73;;;4.00;;
38859;SDS011;24609;48.316;16.174;2022-11-12T12:47:30;5.38;;;3.95;;
38859;SDS011;24609;48.316;16.174;2022-11-12T12:50:04;5.80;;;3.78;;
38859;SDS011;24609;48.316;16.174;2022-11-12T12:55:42;5.03;;;3.63;;
38859;SDS011;24609;48.316;16.174;2022-11-12T13:00:56;7.38;;;4.18;;
38859;SDS011;24609;48.316;16.174;2022-11-12T13:04:07;8.13;;;4.05;;
38859;SDS011;24609;48.316;16.174;2022-11-12T13:08:49;4.93;;;3.00;;
38859;SDS011;24609;48.316;16.174;2022-11-12T13:16:59;7.00;;;4.05;;
38859;SDS011;24609;48.316;16.174;2022-11-12T13:19:36;6.18;;;3.90;;
38859;SDS011;24609;48.316;16.174;2022-11-12T13:30:09;8.02;;;4.13;;
38859;SDS011;24609;48.316;16.174;2022-11-12T13:32:54;7.07;;;3.45;;
38859;SDS011;24609;48.316;16.174;2022-11-12T13:35:24;9.15;;;4.47;;
38859;SDS011;24609;48.316;16.174;2022-11-12T13:37:57;8.35;;;4.57;;
38859;SDS011;24609;48.316;16.174;2022-11-12T13:48:32;6.93;;;4.15;;
38859;SDS011;24609;48.316;16.174;2022-11-12T13:51:09;6.03;;;3.42;;
38859;SDS011;24609;48.316;16.174;2022-11-12T13:53:55;8.13;;;3.63;;
38859;SDS011;24609;48.316;16.174;2022-11-12T13:58:53;7.40;;;3.50;;
38859;SDS011;24609;48.316;16.174;2022-11-12T14:01:20;6.50;;;3.20;;
38859;SDS011;24609;48.316;16.174;2022-11-12T14:03:48;5.53;;;2.70;;
38859;SDS011;24609;48.316;16.174;2022-11-12T14:06:21;12.00;;;3.47;;
38859;SDS011;24609;48.316;16.174;2022-11-12T14:17:17;3.83;;;2.80;;
38859;SDS011;24609;48.316;16.174;2022-11-12T14:22:24;4.72;;;2.75;;
38859;SDS011;24609;48.316;16.174;2022-11-12T14:24:53;5.30;;;2.88;;
38859;SDS011;24609;48.316;16.174;2022-11-12T14:32:39;4.32;;;2.35;;
38859;SDS011;24609;48.316;16.174;2022-11-12T14:40:56;4.43;;;2.72;;
38859;SDS011;24609;48.316;16.174;2022-11-12T14:43:37;5.60;;;2.42;;
38859;SDS011;24609;48.316;16.174;2022-11-12T14:46:07;4.60;;;3.08;;
38859;SDS011;24609;48.316;16.174;2022-11-12T14:48:57;7.30;;;4.22;;
38859;SDS011;24609;48.316;16.174;2022-11-12T14:51:26;9.85;;;4.88;;
38859;SDS011;24609;48.316;16.174;2022-11-12T14:56:36;29.52;;;14.57;;
38859;SDS011;24609;48.316;16.174;2022-11-12T14:59:06;15.77;;;7.95;;
38859;SDS011;24609;48.316;16.174;2022-11-12T15:01:36;14.25;;;6.60;;
38859;SDS011;24609;48.316;16.174;2022-11-12T15:06:35;14.65;;;6.82;;
38859;SDS011;24609;48.316;16.174;2022-11-12T15:09:01;12.80;;;6.53;;
38859;SDS011;24609;48.316;16.174;2022-11-12T15:11:29;8.88;;;5.05;;
38859;SDS011;24609;48.316;16.174;2022-11-12T15:14:00;7.57;;;5.10;;
38859;SDS011;24609;48.316;16.174;2022-11-12T15:16:34;14.40;;;6.55;;
38859;SDS011;24609;48.316;16.174;2022-11-12T15:19:04;15.77;;;9.10;;
38859;SDS011;24609;48.316;16.174;2022-11-12T15:26:39;11.68;;;4.90;;
38859;SDS011;24609;48.316;16.174;2022-11-12T15:31:42;12.32;;;4.20;;
38859;SDS011;24609;48.316;16.174;2022-11-12T15:34:22;7.85;;;4.00;;
38859;SDS011;24609;48.316;16.174;2022-11-12T15:36:52;8.88;;;3.58;;
38859;SDS011;24609;48.316;16.174;2022-11-12T15:39:22;5.03;;;2.50;;
38859;SDS011;24609;48.316;16.174;2022-11-12T15:42:00;4.60;;;1.98;;
38859;SDS011;24609;48.316;16.174;2022-11-12T15:44:29;8.23;;;2.70;;
38859;SDS011;24609;48.316;16.174;2022-11-12T15:46:58;6.10;;;3.05;;
38859;SDS011;24609;48.316;16.174;2022-11-12T15:49:24;9.65;;;3.47;;
38859;SDS011;24609;48.316;16.174;2022-11-12T15:51:50;6.72;;;3.95;;
38859;SDS011;24609;48.316;16.174;2022-11-12T15:54:15;9.40;;;4.60;;
38859;SDS011;24609;48.316;16.174;2022-11-12T15:56:41;6.70;;;4.20;;
38859;SDS011;24609;48.316;16.174;2022-11-12T15:59:08;8.52;;;4.07;;
38859;SDS011;24609;48.316;16.174;2022-11-12T16:01:38;9.35;;;4.32;;
38859;SDS011;24609;48.316;16.174;2022-11-12T16:04:04;9.63;;;5.93;;
38859;SDS011;24609;48.316;16.174;2022-11-12T16:06:30;8.23;;;5.18;;
38859;SDS011;24609;48.316;16.174;2022-11-12T16:08:55;10.40;;;5.55;;
38859;SDS011;24609;48.316;16.174;2022-11-12T16:11:21;6.20;;;3.95;;
38859;SDS011;24609;48.316;16.174;2022-11-12T16:14:06;7.18;;;3.90;;
38859;SDS011;24609;48.316;16.174;2022-11-12T16:16:36;9.98;;;4.63;;
38859;SDS011;24609;48.316;16.174;2022-11-12T16:19:08;7.20;;;4.97;;
38859;SDS011;24609;48.316;16.174;2022-11-12T16:21:37;6.85;;;5.00;;
38859;SDS011;24609;48.316;16.174;2022-11-12T16:24:02;11.85;;;5.55;;
38859;SDS011;24609;48.316;16.174;2022-11-12T16:26:28;11.20;;;5.82;;
38859;SDS011;24609;48.316;16.174;2022-11-12T16:28:56;9.18;;;5.70;;
38859;SDS011;24609;48.316;16.174;2022-11-12T16:31:22;11.38;;;4.88;;
38859;SDS011;24609;48.316;16.174;2022-11-12T16:33:48;8.90;;;5.35;;
38859;SDS011;24609;48.316;16.174;2022-11-12T16:36:14;9.90;;;5.47;;
38859;SDS011;24609;48.316;16.174;2022-11-12T16:38:40;7.78;;;5.00;;
38859;SDS011;24609;48.316;16.174;2022-11-12T16:41:12;9.10;;;5.40;;
38859;SDS011;24609;48.316;16.174;2022-11-12T16:43:38;12.38;;;5.60;;
38859;SDS011;24609;48.316;16.174;2022-11-12T16:46:16;11.55;;;5.65;;
38859;SDS011;24609;48.316;16.174;2022-11-12T16:48:48;11.05;;;5.97;;
38859;SDS011;24609;48.316;16.174;2022-11-12T16:51:14;11.32;;;6.22;;
38859;SDS011;24609;48.316;16.174;2022-11-12T16:53:42;10.68;;;7.20;;
38859;SDS011;24609;48.316;16.174;2022-11-12T16:56:11;9.82;;;5.57;;
38859;SDS011;24609;48.316;16.174;2022-11-12T16:58:40;12.68;;;5.85;;
38859;SDS011;24609;48.316;16.174;2022-11-12T17:01:06;11.40;;;5.53;;
38859;SDS011;24609;48.316;16.174;2022-11-12T17:03:36;9.38;;;4.72;;
38859;SDS011;24609;48.316;16.174;2022-11-12T17:06:02;9.38;;;5.72;;
38859;SDS011;24609;48.316;16.174;2022-11-12T17:08:27;8.23;;;4.95;;
38859;SDS011;24609;48.316;16.174;2022-11-12T17:10:54;8.15;;;5.10;;
38859;SDS011;24609;48.316;16.174;2022-11-12T17:13:20;14.30;;;6.47;;